createdAt,value
2018-10-11T00:00:53.078Z,12.88
2018-10-11T00:01:52.918Z,12.84
2018-10-11T00:02:52.985Z,12.81
2018-10-11T00:03:52.842Z,12.69
2018-10-11T00:04:52.909Z,12.74
2018-10-11T00:05:52.790Z,12.80
2018-10-11T00:06:52.764Z,12.71
2018-10-11T00:07:52.816Z,12.71
2018-10-11T00:08:52.718Z,12.76
2018-10-11T00:09:52.688Z,12.76
2018-10-11T00:10:52.731Z,12.70
2018-10-11T00:11:52.655Z,12.66
2018-10-11T00:12:52.749Z,12.74
2018-10-11T00:13:52.583Z,12.73
2018-10-11T00:14:52.658Z,12.69
2018-10-11T00:15:52.541Z,12.74
2018-10-11T00:16:52.561Z,12.70
2018-10-11T00:17:52.483Z,12.70
2018-10-11T00:18:54.549Z,12.73
2018-10-11T00:19:52.436Z,12.73
2018-10-11T00:20:52.491Z,12.62
2018-10-11T00:21:52.371Z,12.66
2018-10-11T00:22:53.426Z,12.69
2018-10-11T00:23:52.323Z,12.61
2018-10-11T00:24:52.432Z,12.66
2018-10-11T00:25:52.271Z,12.61
2018-10-11T00:26:52.337Z,12.56
2018-10-11T00:27:52.243Z,12.59
2018-10-11T00:28:52.353Z,12.56
2018-10-11T00:29:52.166Z,12.56
2018-10-11T00:30:52.307Z,12.51
2018-10-11T00:31:52.122Z,12.51
2018-10-11T00:32:53.191Z,12.43
2018-10-11T00:33:52.088Z,12.48
2018-10-11T00:34:53.109Z,12.48
2018-10-11T00:35:52.009Z,12.40
2018-10-11T00:36:51.988Z,12.41
2018-10-11T00:37:52.212Z,12.40
2018-10-11T00:38:51.935Z,12.38
2018-10-11T00:39:52.009Z,12.41
2018-10-11T00:40:51.873Z,12.43
2018-10-11T00:41:51.850Z,12.33
2018-10-11T00:42:51.830Z,12.38
2018-10-11T00:43:52.959Z,12.33
2018-10-11T00:44:51.775Z,12.36
2018-10-11T00:45:51.854Z,12.31
2018-10-11T00:46:51.717Z,12.29
2018-10-11T00:47:51.703Z,12.37
2018-10-11T00:48:51.671Z,12.22
2018-10-11T00:49:51.776Z,12.25
2018-10-11T00:50:51.630Z,12.25
2018-10-11T00:51:51.682Z,12.23
2018-10-11T00:52:51.570Z,12.30
2018-10-11T00:53:51.537Z,12.15
2018-10-11T00:54:51.592Z,12.11
2018-10-11T00:55:51.489Z,12.11
2018-10-11T00:56:51.458Z,12.13
2018-10-11T00:57:51.512Z,12.04
2018-10-11T00:58:51.409Z,12.05
2018-10-11T00:59:51.384Z,12.00
2018-10-11T01:00:51.355Z,11.98
2018-10-11T01:01:52.448Z,12.00
2018-10-11T01:02:51.307Z,12.01
2018-10-11T01:03:51.337Z,11.90
2018-10-11T01:04:51.248Z,11.98
2018-10-11T01:05:52.383Z,11.96
2018-10-11T01:06:51.183Z,12.00
2018-10-11T01:07:51.151Z,12.00
2018-10-11T01:08:51.260Z,11.87
2018-10-11T01:09:51.117Z,11.90
2018-10-11T01:10:51.079Z,11.93
2018-10-11T01:11:51.181Z,11.88
2018-10-11T01:12:51.018Z,11.88
2018-10-11T01:13:51.080Z,11.81
2018-10-11T01:14:50.974Z,11.79
2018-10-11T01:15:51.100Z,11.79
2018-10-11T01:16:50.916Z,11.81
2018-10-11T01:17:50.909Z,11.69
2018-10-11T01:18:51.005Z,11.74
2018-10-11T01:19:50.835Z,11.78
2018-10-11T01:20:50.817Z,11.81
2018-10-11T01:21:50.789Z,11.70
2018-10-11T01:22:50.763Z,11.75
2018-10-11T01:23:50.829Z,11.70
2018-10-11T01:24:50.707Z,11.74
2018-10-11T01:25:50.680Z,11.72
2018-10-11T01:26:50.657Z,11.66
2018-10-11T01:27:50.623Z,11.62
2018-10-11T01:28:50.599Z,11.63
2018-10-11T01:29:50.650Z,11.64
2018-10-11T01:30:50.549Z,11.62
2018-10-11T01:31:50.520Z,11.51
2018-10-11T01:32:50.494Z,11.59
2018-10-11T01:33:50.463Z,11.53
2018-10-11T01:34:50.446Z,11.51
2018-10-11T01:35:50.418Z,11.53
2018-10-11T01:36:50.380Z,11.59
2018-10-11T01:37:50.357Z,11.56
2018-10-11T01:38:50.509Z,11.57
2018-10-11T01:39:50.442Z,11.49
2018-10-11T01:40:50.284Z,11.45
2018-10-11T01:41:50.278Z,11.53
2018-10-11T01:42:50.349Z,11.51
2018-10-11T01:43:50.206Z,11.46
2018-10-11T01:44:50.266Z,11.46
2018-10-11T01:45:50.147Z,11.48
2018-10-11T01:46:50.132Z,11.48
2018-10-11T01:47:50.103Z,11.36
2018-10-11T01:48:50.070Z,11.44
2018-10-11T01:49:50.041Z,11.44
2018-10-11T01:50:50.029Z,11.45
2018-10-11T01:51:49.991Z,11.41
2018-10-11T01:52:49.959Z,11.42
2018-10-11T01:53:49.943Z,11.28
2018-10-11T01:54:49.913Z,11.36
2018-10-11T01:55:49.890Z,11.26
2018-10-11T01:56:49.903Z,11.30
2018-10-11T01:57:49.836Z,11.20
2018-10-11T01:58:49.807Z,11.26
2018-10-11T01:59:49.789Z,11.16
2018-10-11T02:00:49.858Z,11.24
2018-10-11T02:01:49.728Z,11.11
2018-10-11T02:02:49.709Z,11.21
2018-10-11T02:03:49.781Z,11.20
2018-10-11T02:04:49.648Z,11.19
2018-10-11T02:05:49.625Z,11.11
2018-10-11T02:06:49.601Z,11.09
2018-10-11T02:07:49.569Z,11.13
2018-10-11T02:08:49.551Z,11.03
2018-10-11T02:09:49.515Z,11.05
2018-10-11T02:10:49.491Z,11.02
2018-10-11T02:11:49.471Z,11.11
2018-10-11T02:12:49.438Z,10.99
2018-10-11T02:13:49.407Z,11.01
2018-10-11T02:14:49.389Z,11.02
2018-10-11T02:15:49.356Z,10.94
2018-10-11T02:16:49.333Z,10.95
2018-10-11T02:17:49.306Z,10.99
2018-10-11T02:18:49.281Z,10.91
2018-10-11T02:19:49.254Z,10.98
2018-10-11T02:20:49.224Z,10.90
2018-10-11T02:21:49.196Z,11.01
2018-10-11T02:22:49.304Z,11.05
2018-10-11T02:23:49.149Z,10.95
2018-10-11T02:24:49.209Z,11.01
2018-10-11T02:25:49.087Z,11.01
2018-10-11T02:26:49.224Z,10.99
2018-10-11T02:27:49.060Z,11.01
2018-10-11T02:28:49.137Z,11.05
2018-10-11T02:29:48.986Z,10.93
2018-10-11T02:30:49.042Z,10.90
2018-10-11T02:31:48.949Z,10.98
2018-10-11T02:32:49.059Z,10.93
2018-10-11T02:33:48.878Z,10.94
2018-10-11T02:34:48.971Z,10.91
2018-10-11T02:35:48.827Z,11.05
2018-10-11T02:36:48.984Z,10.90
2018-10-11T02:37:48.774Z,10.91
2018-10-11T02:38:48.893Z,11.01
2018-10-11T02:39:48.748Z,10.91
2018-10-11T02:40:48.806Z,10.99
2018-10-11T02:41:48.678Z,11.03
2018-10-11T02:42:48.819Z,10.90
2018-10-11T02:43:48.619Z,10.93
2018-10-11T02:44:48.734Z,10.90
2018-10-11T02:45:48.575Z,10.95
2018-10-11T02:46:48.752Z,10.93
2018-10-11T02:47:48.508Z,10.88
2018-10-11T02:48:48.652Z,11.01
2018-10-11T02:49:48.455Z,10.95
2018-10-11T02:50:48.574Z,11.03
2018-10-11T02:51:48.406Z,10.95
2018-10-11T02:52:48.482Z,10.95
2018-10-11T02:53:48.350Z,10.95
2018-10-11T02:54:48.497Z,10.98
2018-10-11T02:55:48.297Z,11.01
2018-10-11T02:56:48.403Z,10.95
2018-10-11T02:57:48.251Z,10.95
2018-10-11T02:58:48.311Z,10.93
2018-10-11T02:59:48.184Z,10.90
2018-10-11T03:00:48.331Z,10.88
2018-10-11T03:01:48.139Z,10.87
2018-10-11T03:02:48.276Z,10.94
2018-10-11T03:03:48.081Z,10.84
2018-10-11T03:04:48.253Z,10.87
2018-10-11T03:05:48.038Z,10.90
2018-10-11T03:06:48.163Z,10.84
2018-10-11T03:07:47.982Z,10.80
2018-10-11T03:08:48.081Z,10.84
2018-10-11T03:09:47.925Z,10.75
2018-10-11T03:10:48.092Z,10.72
2018-10-11T03:11:47.881Z,10.68
2018-10-11T03:12:48.000Z,10.72
2018-10-11T03:13:47.840Z,10.72
2018-10-11T03:14:47.922Z,10.69
2018-10-11T03:15:47.772Z,10.72
2018-10-11T03:16:47.928Z,10.69
2018-10-11T03:17:47.719Z,10.75
2018-10-11T03:18:47.837Z,10.86
2018-10-11T03:19:47.668Z,10.76
2018-10-11T03:20:47.747Z,10.75
2018-10-11T03:21:47.612Z,10.69
2018-10-11T03:22:47.766Z,10.66
2018-10-11T03:23:47.565Z,10.75
2018-10-11T03:24:47.674Z,10.68
2018-10-11T03:25:47.504Z,10.68
2018-10-11T03:26:47.602Z,10.63
2018-10-11T03:27:47.450Z,10.69
2018-10-11T03:28:47.607Z,10.66
2018-10-11T03:29:47.403Z,10.62
2018-10-11T03:30:47.497Z,10.58
2018-10-11T03:31:47.349Z,10.65
2018-10-11T03:32:47.522Z,10.65
2018-10-11T03:33:47.294Z,10.54
2018-10-11T03:34:48.432Z,10.57
2018-10-11T03:35:47.243Z,10.55
2018-10-11T03:36:53.271Z,10.44
2018-10-11T03:37:47.197Z,10.60
2018-10-11T03:38:47.324Z,10.43
2018-10-11T03:39:47.145Z,10.49
2018-10-11T03:40:47.209Z,10.39
2018-10-11T03:41:47.082Z,10.42
2018-10-11T03:42:47.129Z,10.46
2018-10-11T03:43:47.030Z,10.47
2018-10-11T03:44:47.138Z,10.42
2018-10-11T03:45:46.992Z,10.44
2018-10-11T03:46:47.058Z,10.35
2018-10-11T03:47:46.926Z,10.44
2018-10-11T03:48:46.970Z,10.46
2018-10-11T03:49:46.873Z,10.46
2018-10-11T03:50:46.973Z,10.54
2018-10-11T03:51:46.831Z,10.51
2018-10-11T03:52:46.888Z,10.42
2018-10-11T03:53:46.768Z,10.49
2018-10-11T03:54:46.801Z,10.47
2018-10-11T03:55:46.715Z,10.38
2018-10-11T03:56:46.812Z,10.39
2018-10-11T03:57:46.668Z,10.43
2018-10-11T03:58:46.724Z,10.47
2018-10-11T03:59:46.652Z,10.42
2018-10-11T04:00:46.735Z,10.46
2018-10-11T04:01:46.563Z,10.60
2018-10-11T04:02:46.646Z,10.54
2018-10-11T04:03:46.506Z,10.58
2018-10-11T04:04:46.561Z,10.46
2018-10-11T04:05:46.457Z,10.47
2018-10-11T04:06:46.566Z,10.54
2018-10-11T04:07:46.402Z,10.55
2018-10-11T04:08:46.477Z,10.42
2018-10-11T04:09:46.355Z,10.57
2018-10-11T04:10:46.379Z,10.57
2018-10-11T04:11:46.323Z,10.52
2018-10-11T04:12:46.400Z,10.49
2018-10-11T04:13:46.253Z,10.51
2018-10-11T04:14:46.304Z,10.49
2018-10-11T04:15:46.190Z,10.44
2018-10-11T04:16:46.219Z,10.38
2018-10-11T04:17:46.140Z,10.38
2018-10-11T04:18:46.237Z,10.46
2018-10-11T04:19:46.081Z,10.44
2018-10-11T04:20:46.143Z,10.47
2018-10-11T04:21:46.042Z,10.44
2018-10-11T04:22:47.074Z,10.46
2018-10-11T04:23:45.977Z,10.44
2018-10-11T04:24:46.078Z,10.49
2018-10-11T04:25:45.929Z,10.49
2018-10-11T04:26:45.978Z,10.42
2018-10-11T04:27:45.883Z,10.36
2018-10-11T04:28:45.990Z,10.31
2018-10-11T04:29:45.822Z,10.35
2018-10-11T04:30:45.919Z,10.34
2018-10-11T04:31:45.774Z,10.25
2018-10-11T04:32:45.812Z,10.32
2018-10-11T04:33:45.727Z,10.29
2018-10-11T04:34:45.828Z,10.38
2018-10-11T04:35:45.669Z,10.22
2018-10-11T04:36:45.739Z,10.28
2018-10-11T04:37:45.625Z,10.20
2018-10-11T04:38:45.648Z,10.20
2018-10-11T04:39:45.564Z,10.10
2018-10-11T04:40:45.667Z,10.11
2018-10-11T04:41:45.513Z,10.16
2018-10-11T04:42:45.636Z,10.16
2018-10-11T04:43:45.464Z,10.26
2018-10-11T04:44:45.589Z,10.25
2018-10-11T04:45:45.406Z,10.24
2018-10-11T04:46:45.506Z,10.26
2018-10-11T04:47:45.357Z,10.24
2018-10-11T04:48:45.438Z,10.29
2018-10-11T04:49:45.305Z,10.25
2018-10-11T04:50:45.425Z,10.24
2018-10-11T04:51:45.253Z,10.25
2018-10-11T04:52:45.349Z,10.28
2018-10-11T04:53:45.201Z,10.22
2018-10-11T04:54:45.250Z,10.22
2018-10-11T04:55:45.158Z,10.26
2018-10-11T04:56:45.264Z,10.25
2018-10-11T04:57:45.091Z,10.18
2018-10-11T04:58:45.170Z,10.20
2018-10-11T04:59:45.046Z,10.13
2018-10-11T05:00:45.091Z,10.22
2018-10-11T05:01:44.988Z,10.32
2018-10-11T05:02:45.098Z,10.49
2018-10-11T05:03:44.937Z,10.42
2018-10-11T05:04:45.013Z,10.38
2018-10-11T05:05:44.887Z,10.49
2018-10-11T05:06:45.043Z,10.34
2018-10-11T05:07:44.842Z,10.35
2018-10-11T05:08:44.939Z,10.35
2018-10-11T05:09:44.811Z,10.25
2018-10-11T05:10:44.846Z,10.26
2018-10-11T05:11:44.747Z,10.26
2018-10-11T05:12:44.861Z,10.20
2018-10-11T05:13:44.683Z,10.20
2018-10-11T05:14:44.770Z,10.14
2018-10-11T05:15:44.659Z,10.26
2018-10-11T05:16:44.697Z,10.28
2018-10-11T05:17:44.578Z,10.18
2018-10-11T05:18:44.698Z,10.20
2018-10-11T05:19:44.521Z,10.28
2018-10-11T05:20:44.615Z,10.20
2018-10-11T05:21:44.477Z,10.14
2018-10-11T05:22:44.511Z,10.25
2018-10-11T05:23:44.427Z,10.18
2018-10-11T05:24:44.532Z,10.28
2018-10-11T05:25:44.372Z,10.17
2018-10-11T05:26:44.442Z,10.22
2018-10-11T05:27:44.325Z,10.17
2018-10-11T05:28:44.457Z,10.25
2018-10-11T05:29:44.288Z,10.14
2018-10-11T05:30:44.333Z,10.14
2018-10-11T05:31:44.214Z,10.14
2018-10-11T05:32:44.239Z,10.04
2018-10-11T05:33:44.218Z,10.16
2018-10-11T05:34:44.258Z,10.11
2018-10-11T05:35:44.103Z,10.06
2018-10-11T05:36:44.169Z,10.10
2018-10-11T05:37:44.161Z,10.02
2018-10-11T05:38:44.152Z,10.14
2018-10-11T05:39:44.033Z,10.09
2018-10-11T05:40:44.192Z,10.09
2018-10-11T05:41:44.017Z,10.11
2018-10-11T05:42:45.027Z,10.04
2018-10-11T05:43:43.971Z,10.09
2018-10-11T05:44:43.920Z,10.17
2018-10-11T05:45:43.847Z,10.11
2018-10-11T05:46:43.938Z,10.14
2018-10-11T05:47:43.804Z,10.04
2018-10-11T05:48:43.853Z,10.04
2018-10-11T05:49:43.747Z,10.02
2018-10-11T05:50:44.776Z,9.98
2018-10-11T05:51:43.681Z,10.01
2018-10-11T05:52:43.817Z,10.04
2018-10-11T05:53:43.640Z,10.10
2018-10-11T05:54:43.732Z,10.04
2018-10-11T05:55:43.586Z,10.01
2018-10-11T05:56:43.730Z,9.95
2018-10-11T05:57:43.522Z,10.04
2018-10-11T05:58:43.604Z,10.01
2018-10-11T05:59:43.480Z,9.96
2018-10-11T06:00:43.510Z,10.09
2018-10-11T06:01:43.418Z,10.04
2018-10-11T06:02:43.498Z,10.06
2018-10-11T06:03:43.363Z,9.99
2018-10-11T06:04:43.403Z,9.91
2018-10-11T06:05:43.315Z,9.92
2018-10-11T06:06:43.393Z,9.96
2018-10-11T06:07:43.304Z,10.10
2018-10-11T06:08:43.329Z,10.02
2018-10-11T06:09:43.214Z,9.98
2018-10-11T06:10:43.231Z,10.02
2018-10-11T06:11:43.158Z,10.02
2018-10-11T06:12:43.149Z,9.99
2018-10-11T06:13:43.103Z,9.95
2018-10-11T06:14:43.160Z,10.04
2018-10-11T06:15:43.044Z,10.16
2018-10-11T06:16:43.117Z,10.04
2018-10-11T06:17:43.036Z,10.10
2018-10-11T06:18:43.099Z,10.02
2018-10-11T06:19:42.949Z,10.13
2018-10-11T06:20:42.991Z,10.07
2018-10-11T06:21:42.892Z,10.06
2018-10-11T06:22:43.223Z,10.18
2018-10-11T06:23:42.843Z,10.06
2018-10-11T06:24:42.837Z,10.01
2018-10-11T06:25:42.786Z,10.14
2018-10-11T06:26:42.765Z,10.11
2018-10-11T06:27:42.736Z,10.20
2018-10-11T06:28:42.702Z,10.09
2018-10-11T06:29:42.674Z,10.16
2018-10-11T06:30:42.664Z,10.09
2018-10-11T06:31:42.635Z,10.13
2018-10-11T06:32:42.606Z,10.25
2018-10-11T06:33:42.579Z,10.20
2018-10-11T06:34:42.540Z,10.26
2018-10-11T06:35:42.568Z,10.35
2018-10-11T06:36:42.621Z,10.51
2018-10-11T06:37:42.465Z,10.43
2018-10-11T06:38:42.433Z,10.57
2018-10-11T06:39:42.430Z,10.60
2018-10-11T06:40:42.387Z,10.68
2018-10-11T06:41:42.486Z,10.80
2018-10-11T06:42:42.357Z,10.72
2018-10-11T06:43:42.311Z,10.84
2018-10-11T06:44:42.293Z,10.80
2018-10-11T06:45:42.253Z,10.80
2018-10-11T06:46:42.229Z,10.84
2018-10-11T06:47:42.204Z,10.84
2018-10-11T06:48:42.173Z,10.93
2018-10-11T06:49:42.189Z,10.88
2018-10-11T06:50:42.120Z,10.94
2018-10-11T06:51:42.091Z,10.99
2018-10-11T06:52:42.072Z,10.94
2018-10-11T06:53:42.042Z,10.94
2018-10-11T06:54:42.010Z,10.90
2018-10-11T06:55:41.987Z,11.09
2018-10-11T06:56:41.960Z,11.12
2018-10-11T06:57:42.022Z,11.24
2018-10-11T06:58:41.905Z,11.21
2018-10-11T06:59:41.887Z,11.36
2018-10-11T07:00:41.857Z,11.30
2018-10-11T07:01:41.851Z,11.27
2018-10-11T07:02:41.790Z,11.27
2018-10-11T07:03:41.767Z,11.41
2018-10-11T07:04:41.736Z,11.39
2018-10-11T07:05:41.774Z,11.41
2018-10-11T07:06:41.682Z,11.41
2018-10-11T07:07:41.658Z,11.46
2018-10-11T07:08:41.632Z,11.46
2018-10-11T07:09:41.622Z,11.48
2018-10-11T07:10:41.739Z,11.44
2018-10-11T07:11:41.558Z,11.51
2018-10-11T07:12:41.634Z,11.54
2018-10-11T07:13:41.504Z,11.56
2018-10-11T07:14:41.470Z,11.56
2018-10-11T07:15:41.558Z,11.67
2018-10-11T07:16:41.421Z,11.63
2018-10-11T07:17:41.409Z,11.63
2018-10-11T07:18:41.365Z,11.69
2018-10-11T07:19:41.339Z,11.77
2018-10-11T07:20:41.376Z,11.82
2018-10-11T07:21:41.376Z,11.81
2018-10-11T07:22:41.262Z,11.94
2018-10-11T07:23:41.241Z,11.97
2018-10-11T07:24:41.212Z,11.90
2018-10-11T07:25:41.363Z,11.98
2018-10-11T07:26:41.158Z,11.98
2018-10-11T07:27:41.174Z,12.01
2018-10-11T07:28:41.127Z,12.08
2018-10-11T07:29:41.079Z,12.13
2018-10-11T07:30:41.107Z,12.08
2018-10-11T07:31:41.095Z,12.21
2018-10-11T07:32:40.998Z,12.22
2018-10-11T07:33:41.007Z,12.30
2018-10-11T07:34:41.059Z,12.33
2018-10-11T07:35:40.941Z,12.33
2018-10-11T07:36:40.883Z,12.34
2018-10-11T07:37:40.864Z,12.41
2018-10-11T07:38:40.833Z,12.43
2018-10-11T07:39:40.807Z,12.55
2018-10-11T07:40:40.968Z,12.58
2018-10-11T07:41:40.849Z,12.59
2018-10-11T07:42:40.823Z,12.66
2018-10-11T07:43:40.697Z,12.71
2018-10-11T07:44:40.680Z,12.73
2018-10-11T07:45:40.676Z,12.71
2018-10-11T07:46:40.623Z,12.76
2018-10-11T07:47:40.684Z,12.81
2018-10-11T07:48:40.558Z,12.87
2018-10-11T07:49:40.695Z,12.80
2018-10-11T07:50:40.520Z,12.95
2018-10-11T07:51:40.505Z,12.99
2018-10-11T07:52:40.502Z,13.10
2018-10-11T07:53:40.440Z,13.10
2018-10-11T07:54:40.413Z,13.12
2018-10-11T07:55:40.440Z,13.19
2018-10-11T07:56:40.348Z,13.24
2018-10-11T07:57:40.351Z,13.29
2018-10-11T07:58:40.296Z,13.25
2018-10-11T07:59:40.351Z,13.31
2018-10-11T08:00:40.238Z,13.35
2018-10-11T08:01:40.291Z,13.48
2018-10-11T08:02:40.190Z,13.51
2018-10-11T08:03:40.179Z,13.51
2018-10-11T08:04:40.153Z,13.61
2018-10-11T08:05:40.187Z,13.61
2018-10-11T08:06:40.079Z,13.73
2018-10-11T08:07:40.169Z,13.80
2018-10-11T08:08:40.043Z,13.76
2018-10-11T08:09:40.005Z,13.99
2018-10-11T08:10:40.143Z,13.91
2018-10-11T08:11:40.144Z,13.98
2018-10-11T08:12:39.921Z,14.01
2018-10-11T08:13:40.003Z,14.01
2018-10-11T08:14:39.884Z,14.04
2018-10-11T08:15:39.944Z,14.16
2018-10-11T08:16:39.914Z,14.16
2018-10-11T08:17:40.163Z,14.26
2018-10-11T08:18:39.842Z,14.23
2018-10-11T08:19:39.839Z,14.26
2018-10-11T08:20:39.772Z,14.42
2018-10-11T08:21:39.813Z,14.41
2018-10-11T08:22:39.650Z,14.59
2018-10-11T08:23:39.691Z,14.66
2018-10-11T08:24:39.632Z,14.74
2018-10-11T08:25:39.842Z,14.69
2018-10-11T08:26:39.601Z,14.80
2018-10-11T08:27:39.618Z,15.03
2018-10-11T08:28:39.548Z,15.01
2018-10-11T08:29:39.528Z,15.07
2018-10-11T08:30:39.451Z,15.19
2018-10-11T08:31:39.448Z,15.12
2018-10-11T08:32:39.710Z,15.18
2018-10-11T08:33:39.452Z,15.28
2018-10-11T08:34:39.345Z,15.31
2018-10-11T08:35:39.319Z,15.38
2018-10-11T08:36:39.274Z,15.37
2018-10-11T08:37:39.334Z,15.51
2018-10-11T08:38:39.287Z,15.48
2018-10-11T08:39:39.284Z,15.58
2018-10-11T08:40:39.161Z,15.59
2018-10-11T08:41:39.210Z,15.56
2018-10-11T08:42:39.115Z,15.67
2018-10-11T08:43:39.236Z,15.68
2018-10-11T08:44:39.053Z,15.71
2018-10-11T08:45:39.116Z,15.84
2018-10-11T08:46:39.008Z,15.93
2018-10-11T08:47:39.028Z,15.89
2018-10-11T08:48:38.955Z,15.96
2018-10-11T08:49:39.038Z,16.07
2018-10-11T08:50:38.926Z,16.16
2018-10-11T08:51:38.955Z,16.18
2018-10-11T08:52:38.843Z,16.40
2018-10-11T08:53:38.904Z,16.40
2018-10-11T08:54:38.787Z,16.52
2018-10-11T08:55:38.987Z,16.62
2018-10-11T08:56:38.741Z,16.66
2018-10-11T08:57:38.800Z,16.85
2018-10-11T08:58:38.695Z,16.84
2018-10-11T08:59:38.738Z,17.06
2018-10-11T09:00:38.644Z,17.05
2018-10-11T09:01:38.700Z,17.17
2018-10-11T09:02:38.586Z,17.30
2018-10-11T09:03:39.776Z,17.30
2018-10-11T09:04:38.528Z,17.38
2018-10-11T09:05:38.525Z,17.45
2018-10-11T09:06:38.472Z,17.40
2018-10-11T09:07:38.545Z,17.49
2018-10-11T09:08:38.423Z,17.58
2018-10-11T09:09:38.524Z,17.74
2018-10-11T09:10:38.695Z,17.79
2018-10-11T09:11:40.405Z,17.92
2018-10-11T09:12:38.314Z,18.10
2018-10-11T09:13:38.385Z,18.09
2018-10-11T09:14:38.260Z,18.21
2018-10-11T09:15:38.286Z,18.23
2018-10-11T09:16:38.228Z,18.35
2018-10-11T09:17:38.307Z,18.35
2018-10-11T09:18:38.151Z,18.57
2018-10-11T09:19:38.203Z,18.57
2018-10-11T09:20:38.107Z,18.71
2018-10-11T09:21:38.121Z,18.82
2018-10-11T09:22:38.063Z,18.79
2018-10-11T09:23:38.125Z,18.91
2018-10-11T09:24:38.008Z,18.94
2018-10-11T09:25:38.050Z,18.94
2018-10-11T09:26:37.953Z,19.16
2018-10-11T09:27:37.951Z,19.17
2018-10-11T09:28:37.895Z,19.34
2018-10-11T09:29:37.956Z,19.49
2018-10-11T09:30:37.846Z,19.50
2018-10-11T09:31:37.875Z,19.57
2018-10-11T09:32:37.786Z,19.70
2018-10-11T09:33:37.794Z,19.75
2018-10-11T09:34:37.744Z,19.78
2018-10-11T09:35:37.797Z,19.86
2018-10-11T09:36:37.807Z,19.94
2018-10-11T09:37:37.710Z,20.13
2018-10-11T09:38:37.629Z,20.19
2018-10-11T09:39:37.614Z,20.35
2018-10-11T09:40:37.593Z,20.33
2018-10-11T09:41:37.630Z,20.37
2018-10-11T09:42:37.533Z,20.44
2018-10-11T09:43:37.541Z,20.46
2018-10-11T09:44:37.471Z,20.57
2018-10-11T09:45:37.554Z,20.63
2018-10-11T09:46:37.413Z,20.71
2018-10-11T09:47:37.467Z,20.68
2018-10-11T09:48:37.372Z,20.64
2018-10-11T09:49:37.375Z,20.57
2018-10-11T09:50:37.317Z,20.69
2018-10-11T09:51:38.312Z,20.64
2018-10-11T09:52:37.254Z,20.75
2018-10-11T09:53:37.296Z,20.68
2018-10-11T09:54:37.228Z,20.61
2018-10-11T09:55:37.211Z,20.68
2018-10-11T09:56:37.159Z,20.75
2018-10-11T09:57:37.228Z,20.85
2018-10-11T09:58:37.102Z,20.85
2018-10-11T09:59:37.141Z,21.00
2018-10-11T10:00:37.060Z,21.03
2018-10-11T10:01:37.040Z,21.08
2018-10-11T10:02:36.995Z,21.08
2018-10-11T10:03:37.071Z,21.19
2018-10-11T10:04:36.953Z,21.16
2018-10-11T10:05:39.024Z,21.05
2018-10-11T10:06:36.892Z,21.09
2018-10-11T10:07:37.906Z,20.97
2018-10-11T10:08:36.854Z,20.91
2018-10-11T10:09:36.895Z,20.83
2018-10-11T10:10:36.799Z,20.79
2018-10-11T10:11:36.817Z,20.75
2018-10-11T10:12:36.743Z,20.69
2018-10-11T10:13:36.813Z,20.69
2018-10-11T10:14:36.689Z,20.69
2018-10-11T10:15:36.796Z,20.75
2018-10-11T10:16:36.626Z,20.85
2018-10-11T10:17:36.634Z,20.85
2018-10-11T10:18:36.585Z,21.05
2018-10-11T10:19:36.652Z,21.18
2018-10-11T10:20:36.530Z,21.40
2018-10-11T10:21:36.592Z,21.66
2018-10-11T10:22:36.474Z,21.68
2018-10-11T10:23:36.449Z,21.71
2018-10-11T10:24:36.727Z,21.68
2018-10-11T10:25:36.717Z,21.56
2018-10-11T10:26:36.413Z,21.55
2018-10-11T10:27:36.395Z,21.37
2018-10-11T10:28:36.317Z,21.42
2018-10-11T10:29:36.303Z,21.46
2018-10-11T10:30:36.264Z,21.40
2018-10-11T10:31:36.313Z,21.42
2018-10-11T10:32:36.210Z,21.40
2018-10-11T10:33:36.227Z,21.27
2018-10-11T10:34:36.167Z,21.31
2018-10-11T10:35:36.239Z,21.15
2018-10-11T10:36:36.102Z,21.12
2018-10-11T10:37:36.159Z,21.22
2018-10-11T10:38:36.054Z,21.40
2018-10-11T10:39:36.072Z,21.55
2018-10-11T10:40:36.007Z,21.66
2018-10-11T10:41:36.074Z,21.75
2018-10-11T10:42:35.949Z,21.79
2018-10-11T10:43:35.985Z,21.81
2018-10-11T10:44:35.893Z,21.81
2018-10-11T10:45:35.890Z,21.98
2018-10-11T10:46:35.853Z,21.75
2018-10-11T10:47:35.910Z,21.55
2018-10-11T10:48:35.791Z,21.52
2018-10-11T10:49:35.834Z,21.61
2018-10-11T10:50:35.759Z,21.61
2018-10-11T10:51:35.842Z,21.66
2018-10-11T10:52:35.711Z,21.61
2018-10-11T10:53:35.752Z,21.56
2018-10-11T10:54:35.673Z,21.59
2018-10-11T10:55:35.653Z,21.64
2018-10-11T10:56:35.607Z,21.70
2018-10-11T10:57:35.670Z,21.68
2018-10-11T10:58:35.534Z,21.75
2018-10-11T10:59:35.579Z,21.77
2018-10-11T11:00:35.483Z,21.83
2018-10-11T11:01:35.490Z,22.12
2018-10-11T11:02:35.433Z,22.30
2018-10-11T11:03:35.508Z,22.57
2018-10-11T11:04:35.382Z,22.60
2018-10-11T11:05:35.418Z,22.72
2018-10-11T11:06:35.327Z,22.79
2018-10-11T11:07:35.420Z,22.86
2018-10-11T11:08:35.289Z,22.76
2018-10-11T11:09:35.351Z,22.61
2018-10-11T11:10:35.238Z,22.51
2018-10-11T11:11:35.244Z,22.30
2018-10-11T11:12:35.190Z,22.30
2018-10-11T11:13:35.260Z,22.31
2018-10-11T11:14:35.135Z,22.31
2018-10-11T11:15:35.169Z,22.36
2018-10-11T11:16:35.081Z,22.42
2018-10-11T11:17:35.093Z,22.36
2018-10-11T11:18:35.037Z,22.42
2018-10-11T11:19:35.091Z,22.42
2018-10-11T11:20:34.994Z,22.60
2018-10-11T11:21:35.010Z,22.61
2018-10-11T11:22:34.920Z,22.63
2018-10-11T11:23:34.913Z,22.69
2018-10-11T11:24:34.872Z,22.72
2018-10-11T11:25:34.929Z,22.56
2018-10-11T11:26:34.841Z,22.57
2018-10-11T11:27:34.832Z,22.48
2018-10-11T11:28:34.783Z,22.51
2018-10-11T11:29:34.748Z,22.60
2018-10-11T11:30:34.799Z,22.56
2018-10-11T11:31:34.697Z,22.57
2018-10-11T11:32:34.771Z,22.67
2018-10-11T11:33:34.656Z,22.81
2018-10-11T11:34:34.677Z,22.86
2018-10-11T11:35:34.595Z,23.03
2018-10-11T11:36:34.592Z,23.18
2018-10-11T11:37:34.556Z,23.34
2018-10-11T11:38:34.517Z,23.44
2018-10-11T11:39:34.494Z,23.47
2018-10-11T11:40:34.480Z,23.62
2018-10-11T11:41:34.446Z,23.56
2018-10-11T11:42:34.413Z,23.54
2018-10-11T11:43:34.394Z,23.49
2018-10-11T11:44:34.378Z,23.38
2018-10-11T11:45:34.346Z,23.25
2018-10-11T11:46:34.327Z,23.12
2018-10-11T11:47:34.410Z,23.16
2018-10-11T11:48:34.263Z,23.12
2018-10-11T11:49:34.307Z,23.09
2018-10-11T11:50:34.320Z,22.97
2018-10-11T11:51:34.323Z,22.93
2018-10-11T11:52:34.168Z,22.82
2018-10-11T11:53:34.248Z,22.81
2018-10-11T11:54:34.143Z,22.88
2018-10-11T11:55:34.249Z,22.84
2018-10-11T11:56:34.070Z,22.99
2018-10-11T11:57:34.163Z,22.93
2018-10-11T11:58:34.017Z,22.99
2018-10-11T11:59:34.078Z,23.04
2018-10-11T12:00:33.962Z,23.06
2018-10-11T12:01:34.081Z,22.97
2018-10-11T12:02:33.946Z,22.82
2018-10-11T12:03:33.995Z,22.85
2018-10-11T12:04:33.868Z,22.91
2018-10-11T12:05:34.012Z,22.91
2018-10-11T12:06:33.829Z,22.93
2018-10-11T12:07:33.923Z,22.94
2018-10-11T12:08:33.775Z,23.07
2018-10-11T12:09:33.832Z,22.96
2018-10-11T12:10:33.919Z,22.96
2018-10-11T12:11:33.847Z,22.89
2018-10-11T12:12:33.692Z,22.89
2018-10-11T12:13:33.756Z,23.09
2018-10-11T12:14:33.621Z,23.12
2018-10-11T12:15:33.765Z,23.44
2018-10-11T12:16:33.606Z,23.62
2018-10-11T12:17:33.685Z,23.77
2018-10-11T12:18:33.518Z,24.00
2018-10-11T12:19:33.530Z,24.12
2018-10-11T12:20:33.479Z,24.15
2018-10-11T12:21:33.609Z,24.26
2018-10-11T12:22:33.426Z,24.31
2018-10-11T12:23:33.515Z,24.23
2018-10-11T12:24:33.374Z,24.37
2018-10-11T12:25:33.624Z,24.46
2018-10-11T12:26:33.383Z,24.59
2018-10-11T12:27:33.443Z,24.55
2018-10-11T12:28:33.463Z,24.63
2018-10-11T12:29:33.360Z,24.60
2018-10-11T12:30:33.235Z,24.55
2018-10-11T12:31:33.364Z,24.45
2018-10-11T12:32:33.184Z,24.19
2018-10-11T12:33:33.280Z,24.24
2018-10-11T12:34:33.130Z,24.06
2018-10-11T12:35:33.173Z,24.14
2018-10-11T12:36:33.151Z,24.11
2018-10-11T12:37:33.201Z,24.05
2018-10-11T12:38:33.055Z,24.12
2018-10-11T12:39:33.372Z,24.23
2018-10-11T12:40:32.988Z,24.23
2018-10-11T12:41:34.042Z,24.36
2018-10-11T12:42:33.040Z,24.39
2018-10-11T12:43:33.057Z,24.51
2018-10-11T12:44:32.887Z,24.56
2018-10-11T12:45:32.933Z,24.48
2018-10-11T12:46:40.930Z,24.39
2018-10-11T12:47:32.952Z,24.46
2018-10-11T12:48:32.817Z,24.31
2018-10-11T12:49:36.459Z,24.39
2018-10-11T12:50:32.760Z,24.41
2018-10-11T12:51:32.931Z,24.31
2018-10-11T12:52:32.696Z,24.41
2018-10-11T12:53:32.675Z,24.42